| time (UTC) | temp C | wind direction | speed KPH | gust KPH | rain 1hr cm | rain 24hr cm | rain mn cm | humidity % | barometer mb |
| 20260507224901 | 12 | 1 | 4.8 | 9.7 | 0.00 | 0.00 | 0.00 | 40 | 1002.0 |
| 20260507224357 | 12 | 332 | 8.0 | 12.9 | 0.00 | 0.00 | 0.00 | 38 | 1001.7 |
| 20260507223854 | 12 | 37 | 1.6 | 4.8 | 0.00 | 0.00 | 0.00 | 41 | 1001.6 |
| 20260507223350 | 12 | 15 | 1.6 | 3.2 | 0.00 | 0.00 | 0.00 | 40 | 1001.6 |
| 20260507222847 | 12 | 27 | 4.8 | 8.0 | 0.00 | 0.00 | 0.00 | 39 | 1001.6 |
| 20260507222343 | 13 | 37 | 3.2 | 4.8 | 0.00 | 0.00 | 0.00 | 38 | 1001.4 |
| 20260507221841 | 13 | 50 | 1.6 | 3.2 | 0.00 | 0.00 | 0.00 | 39 | 1001.5 |
| 20260507221337 | 13 | 35 | 3.2 | 9.7 | 0.00 | 0.00 | 0.00 | 38 | 1001.7 |
| 20260507220833 | 13 | 9 | 3.2 | 9.7 | 0.00 | 0.00 | 0.00 | 38 | 1001.6 |
| 20260507220332 | 13 | 35 | 1.6 | 8.0 | 0.00 | 0.00 | 0.00 | 39 | 1001.6 |
| 20260507215827 | 13 | 43 | 1.6 | 3.2 | 0.00 | 0.00 | 0.00 | 38 | 1001.6 |
| 20260507215325 | 13 | 39 | 0.0 | 1.6 | 0.00 | 0.00 | 0.00 | 39 | 1001.6 |
| 20260507214822 | 13 | 59 | 1.6 | 3.2 | 0.00 | 0.00 | 0.00 | 37 | 1001.4 |
| 20260507214319 | 14 | 38 | 4.8 | 8.0 | 0.00 | 0.00 | 0.00 | 37 | 1001.4 |
| 20260507213814 | 14 | 24 | 1.6 | 3.2 | 0.00 | 0.00 | 0.00 | 38 | 1001.5 |
| 20260507213312 | 14 | 38 | 1.6 | 4.8 | 0.00 | 0.00 | 0.00 | 36 | 1001.5 |
| 20260507212808 | 15 | 48 | 1.6 | 4.8 | 0.00 | 0.00 | 0.00 | 38 | 1001.3 |
| 20260507212307 | 15 | 24 | 3.2 | 9.7 | 0.00 | 0.00 | 0.00 | 36 | 1001.5 |
| 20260507211801 | 14 | 352 | 3.2 | 3.2 | 0.00 | 0.00 | 0.00 | 36 | 1001.4 |
| 20260507211257 | 15 | 76 | 8.0 | 9.7 | 0.00 | 0.00 | 0.00 | 34 | 1001.3 |
| 20260507210754 | 15 | 3 | 1.6 | 3.2 | 0.00 | 0.00 | 0.00 | 35 | 1001.2 |
| 20260507210251 | 15 | 11 | 3.2 | 8.0 | 0.00 | 0.00 | 0.00 | 37 | 1001.2 |
| 20260507205748 | 15 | 312 | 6.4 | 9.7 | 0.00 | 0.00 | 0.00 | 34 | 1001.1 |
| 20260507205245 | 15 | 358 | 3.2 | 4.8 | 0.00 | 0.00 | 0.00 | 35 | 1001.1 |
| 20260507204741 | 15 | 41 | 1.6 | 4.8 | 0.00 | 0.00 | 0.00 | 36 | 1001.2 |
| 20260507204239 | 15 | 39 | 1.6 | 4.8 | 0.00 | 0.00 | 0.00 | 37 | 1000.9 |
| 20260507203736 | 15 | 44 | 0.0 | 3.2 | 0.00 | 0.00 | 0.00 | 35 | 1001.1 |
| 20260507203233 | 15 | 14 | 4.8 | 8.0 | 0.00 | 0.00 | 0.00 | 36 | 1001.0 |
| 20260507202730 | 15 | 39 | 3.2 | 8.0 | 0.00 | 0.00 | 0.00 | 37 | 1001.0 |
| 20260507202226 | 16 | 21 | 3.2 | 9.7 | 0.00 | 0.00 | 0.00 | 35 | 1001.0 |
| 20260507201721 | 16 | 96 | 3.2 | 9.7 | 0.00 | 0.00 | 0.00 | 34 | 1001.0 |
| 20260507201218 | 16 | 9 | 4.8 | 9.7 | 0.00 | 0.00 | 0.00 | 34 | 1001.0 |
| 20260507200714 | 16 | 19 | 4.8 | 9.7 | 0.00 | 0.00 | 0.00 | 34 | 1000.9 |
| 20260507200210 | 15 | 20 | 1.6 | 3.2 | 0.00 | 0.00 | 0.00 | 35 | 1001.2 |
| 20260507195707 | 16 | 41 | 1.6 | 4.8 | 0.00 | 0.00 | 0.00 | 35 | 1001.2 |
| 20260507195204 | 15 | 67 | 4.8 | 4.8 | 0.00 | 0.00 | 0.00 | 36 | 1001.1 |
| 20260507194701 | 14 | 44 | 4.8 | 14.5 | 0.00 | 0.00 | 0.00 | 38 | 1001.0 |
| 20260507194156 | 15 | 33 | 4.8 | 8.0 | 0.00 | 0.00 | 0.00 | 38 | 1001.1 |
| 20260507193654 | 15 | 95 | 1.6 | 8.0 | 0.00 | 0.00 | 0.00 | 36 | 1001.1 |
| 20260507193151 | 14 | 54 | 1.6 | 3.2 | 0.00 | 0.00 | 0.00 | 38 | 1001.3 |
| 20260507192646 | 15 | 357 | 3.2 | 9.7 | 0.00 | 0.00 | 0.00 | 38 | 1001.3 |
| 20260507192144 | 14 | 19 | 4.8 | 4.8 | 0.00 | 0.00 | 0.00 | 38 | 1001.2 |
| 20260507191639 | 14 | 26 | 4.8 | 8.0 | 0.00 | 0.00 | 0.00 | 40 | 1001.5 |
| 20260507191136 | 14 | 345 | 6.4 | 9.7 | 0.00 | 0.00 | 0.00 | 39 | 1001.4 |
| 20260507190634 | 15 | 69 | 4.8 | 8.0 | 0.00 | 0.00 | 0.00 | 39 | 1001.5 |
| 20260507190133 | 15 | 24 | 0.0 | 3.2 | 0.00 | 0.00 | 0.00 | 39 | 1001.4 |
| 20260507185630 | 15 | 170 | 4.8 | 8.0 | 0.00 | 0.00 | 0.00 | 38 | 1001.4 |
| 20260507185126 | 15 | 22 | 3.2 | 11.3 | 0.00 | 0.00 | 0.00 | 39 | 1001.5 |
| 20260507184625 | 15 | 49 | 6.4 | 9.7 | 0.00 | 0.00 | 0.00 | 37 | 1001.5 |
| 20260507184122 | 15 | 19 | 4.8 | 11.3 | 0.00 | 0.00 | 0.00 | 38 | 1001.8 |
| 20260507183618 | 14 | 42 | 3.2 | 4.8 | 0.00 | 0.00 | 0.00 | 39 | 1001.7 |
| 20260507183115 | 15 | 16 | 3.2 | 8.0 | 0.00 | 0.00 | 0.00 | 40 | 1001.7 |
| 20260507182612 | 15 | 33 | 4.8 | 9.7 | 0.00 | 0.00 | 0.00 | 40 | 1001.7 |
| 20260507182108 | 13 | 258 | 3.2 | 8.0 | 0.00 | 0.00 | 0.00 | 40 | 1001.7 |
| 20260507181605 | 13 | 33 | 3.2 | 3.2 | 0.00 | 0.00 | 0.00 | 40 | 1001.9 |
| 20260507181101 | 13 | 28 | 0.0 | 4.8 | 0.00 | 0.00 | 0.00 | 42 | 1001.6 |
| 20260507180558 | 15 | 344 | 4.8 | 8.0 | 0.00 | 0.00 | 0.00 | 39 | 1001.7 |
| 20260507180054 | 14 | 74 | 3.2 | 4.8 | 0.00 | 0.00 | 0.00 | 40 | 1001.8 |
| 20260507175550 | 15 | 45 | 4.8 | 12.9 | 0.00 | 0.00 | 0.00 | 39 | 1001.7 |
| 20260507175048 | 15 | 351 | 6.4 | 8.0 | 0.00 | 0.00 | 0.00 | 40 | 1001.8 |
| 20260507174545 | 15 | 167 | 3.2 | 8.0 | 0.00 | 0.00 | 0.00 | 41 | 1001.8 |
| 20260507174043 | 15 | 299 | 4.8 | 8.0 | 0.00 | 0.00 | 0.00 | 42 | 1001.9 |
| 20260507173540 | 15 | 66 | 3.2 | 9.7 | 0.00 | 0.00 | 0.00 | 42 | 1002.0 |
| 20260507173037 | 15 | 25 | 1.6 | 3.2 | 0.00 | 0.00 | 0.00 | 45 | 1001.9 |
| 20260507172533 | 15 | 88 | 1.6 | 11.3 | 0.00 | 0.00 | 0.00 | 42 | 1001.9 |
| 20260507172030 | 15 | 15 | 3.2 | 4.8 | 0.00 | 0.00 | 0.00 | 44 | 1002.1 |
| 20260507171525 | 13 | 296 | 8.0 | 9.7 | 0.00 | 0.00 | 0.00 | 45 | 1002.0 |
| 20260507171023 | 13 | 329 | 3.2 | 9.7 | 0.00 | 0.00 | 0.00 | 49 | 1002.1 |
| 20260507170519 | 13 | 53 | 3.2 | 14.5 | 0.00 | 0.00 | 0.00 | 51 | 1002.0 |
| 20260507170016 | 14 | 41 | 0.0 | 8.0 | 0.00 | 0.00 | 0.00 | 50 | 1002.2 |
| 20260507165512 | 13 | 46 | 1.6 | 11.3 | 0.00 | 0.00 | 0.00 | 55 | 1002.2 |
| 20260507165009 | 13 | 22 | 3.2 | 4.8 | 0.00 | 0.00 | 0.00 | 59 | 1002.3 |
| 20260507164505 | 12 | 32 | 3.2 | 9.7 | 0.00 | 0.00 | 0.00 | 62 | 1002.6 |
| 20260507164002 | 12 | 260 | 3.2 | 8.0 | 0.00 | 0.00 | 0.00 | 62 | 1002.6 |
| 20260507163459 | 12 | 351 | 3.2 | 11.3 | 0.00 | 0.00 | 0.00 | 58 | 1002.7 |
| 20260507162956 | 12 | 247 | 6.4 | 9.7 | 0.00 | 0.00 | 0.00 | 57 | 1002.7 |
| 20260507162451 | 12 | 355 | 6.4 | 9.7 | 0.00 | 0.00 | 0.00 | 62 | 1003.0 |
| 20260507161949 | 11 | 341 | 3.2 | 9.7 | 0.00 | 0.00 | 0.00 | 64 | 1003.0 |
| 20260507161445 | 11 | 45 | 1.6 | 9.7 | 0.00 | 0.00 | 0.00 | 66 | 1003.0 |
| 20260507160942 | 11 | 8 | 3.2 | 11.3 | 0.00 | 0.00 | 0.00 | 66 | 1003.0 |
| 20260507160438 | 12 | 12 | 3.2 | 9.7 | 0.00 | 0.00 | 0.00 | 68 | 1002.8 |
| 20260507155933 | 13 | 55 | 4.8 | 9.7 | 0.00 | 0.00 | 0.00 | 63 | 1002.7 |
| 20260507155430 | 13 | 27 | 1.6 | 3.2 | 0.00 | 0.00 | 0.00 | 63 | 1002.8 |
| 20260507154927 | 13 | 251 | 4.8 | 11.3 | 0.00 | 0.00 | 0.00 | 63 | 1002.8 |
| 20260507154423 | 13 | 346 | 3.2 | 4.8 | 0.00 | 0.00 | 0.00 | 61 | 1002.9 |
| 20260507153921 | 14 | 2 | 1.6 | 12.9 | 0.00 | 0.00 | 0.00 | 63 | 1002.7 |
| 20260507153417 | 13 | 285 | 8.0 | 11.3 | 0.00 | 0.00 | 0.00 | 62 | 1002.7 |
| 20260507152914 | 13 | 263 | 1.6 | 8.0 | 0.00 | 0.00 | 0.00 | 66 | 1002.9 |
| 20260507152410 | 13 | 16 | 1.6 | 8.0 | 0.00 | 0.00 | 0.00 | 66 | 1003.0 |
| 20260507151906 | 13 | 36 | 1.6 | 4.8 | 0.00 | 0.00 | 0.00 | 67 | 1003.0 |
| 20260507151403 | 12 | 274 | 3.2 | 12.9 | 0.00 | 0.00 | 0.00 | 65 | 1003.0 |
| 20260507150900 | 13 | 127 | 6.4 | 9.7 | 0.00 | 0.00 | 0.00 | 65 | 1003.0 |
| 20260507150356 | 13 | 128 | 3.2 | 9.7 | 0.00 | 0.00 | 0.00 | 68 | 1002.9 |
| 20260507145852 | 13 | 39 | 0.0 | 4.8 | 0.00 | 0.00 | 0.00 | 67 | 1002.9 |
| 20260507145349 | 13 | 353 | 3.2 | 4.8 | 0.00 | 0.00 | 0.00 | 64 | 1003.0 |
| 20260507144846 | 13 | 25 | 1.6 | 8.0 | 0.00 | 0.00 | 0.00 | 64 | 1002.8 |
| 20260507144343 | 13 | 50 | 1.6 | 4.8 | 0.00 | 0.00 | 0.00 | 66 | 1003.0 |
| 20260507143840 | 13 | 25 | 4.8 | 9.7 | 0.00 | 0.00 | 0.00 | 62 | 1002.7 |
| 20260507143337 | 13 | 16 | 4.8 | 4.8 | 0.00 | 0.00 | 0.00 | 67 | 1002.8 |
| 20260507142833 | 13 | 20 | 1.6 | 3.2 | 0.00 | 0.00 | 0.00 | 66 | 1002.7 |
| 20260507142330 | 12 | 75 | 1.6 | 3.2 | 0.00 | 0.00 | 0.00 | 66 | 1002.9 |
| 20260507141826 | 13 | 67 | 3.2 | 4.8 | 0.00 | 0.00 | 0.00 | 64 | 1002.9 |
| 20260507141323 | 13 | 328 | 4.8 | 4.8 | 0.00 | 0.00 | 0.00 | 64 | 1002.9 |
| 20260507140820 | 13 | 30 | 3.2 | 4.8 | 0.00 | 0.00 | 0.00 | 65 | 1002.8 |
| 20260507140316 | 13 | 24 | 3.2 | 4.8 | 0.00 | 0.00 | 0.00 | 61 | 1002.7 |
| 20260507135815 | 13 | 255 | 6.4 | 9.7 | 0.00 | 0.00 | 0.00 | 60 | 1003.0 |
| 20260507135311 | 13 | 13 | 3.2 | 3.2 | 0.00 | 0.00 | 0.00 | 62 | 1003.0 |
| 20260507134808 | 13 | 22 | 1.6 | 8.0 | 0.00 | 0.00 | 0.00 | 60 | 1002.9 |
| 20260507134304 | 13 | 15 | 6.4 | 8.0 | 0.00 | 0.00 | 0.00 | 64 | 1003.1 |
| 20260507133800 | 13 | 50 | 3.2 | 3.2 | 0.00 | 0.00 | 0.00 | 61 | 1003.1 |
| 20260507133256 | 12 | 24 | 3.2 | 4.8 | 0.00 | 0.00 | 0.00 | 63 | 1003.3 |
| 20260507132755 | 12 | 66 | 3.2 | 3.2 | 0.00 | 0.00 | 0.00 | 63 | 1003.5 |
| 20260507132251 | 13 | 1 | 4.8 | 9.7 | 0.00 | 0.00 | 0.00 | 62 | 1003.3 |
| 20260507131748 | 12 | 25 | 3.2 | 11.3 | 0.00 | 0.00 | 0.00 | 63 | 1003.5 |
| 20260507131245 | 12 | 60 | 1.6 | 8.0 | 0.00 | 0.00 | 0.00 | 63 | 1003.6 |
| 20260507130741 | 12 | 172 | 3.2 | 8.0 | 0.00 | 0.00 | 0.00 | 64 | 1003.4 |
| 20260507130239 | 12 | 55 | 0.0 | 4.8 | 0.00 | 0.00 | 0.00 | 67 | 1003.5 |
| 20260507125738 | 12 | 53 | 1.6 | 4.8 | 0.00 | 0.00 | 0.00 | 64 | 1003.3 |
| 20260507125235 | 12 | 68 | 1.6 | 3.2 | 0.00 | 0.00 | 0.00 | 67 | 1003.2 |
| 20260507124731 | 11 | 71 | 1.6 | 4.8 | 0.00 | 0.00 | 0.00 | 69 | 1003.4 |
| 20260507124228 | 11 | 38 | 0.0 | 3.2 | 0.00 | 0.00 | 0.00 | 70 | 1003.3 |
| 20260507123727 | 11 | 54 | 0.0 | 1.6 | 0.00 | 0.00 | 0.00 | 75 | 1003.5 |
| 20260507123224 | 11 | 27 | 1.6 | 3.2 | 0.00 | 0.00 | 0.00 | 79 | 1003.4 |
| 20260507122719 | 11 | 37 | 0.0 | 3.2 | 0.00 | 0.00 | 0.00 | 81 | 1003.7 |
| 20260507122215 | 11 | 315 | 3.2 | 4.8 | 0.00 | 0.00 | 0.00 | 82 | 1003.6 |
| 20260507121711 | 10 | 333 | 1.6 | 3.2 | 0.00 | 0.00 | 0.00 | 77 | 1003.8 |
| 20260507121207 | 10 | 345 | 1.6 | 3.2 | 0.00 | 0.00 | 0.00 | 77 | 1003.7 |
| 20260507120703 | 10 | 328 | 1.6 | 4.8 | 0.00 | 0.00 | 0.00 | 85 | 1003.9 |
| 20260507120201 | 10 | 29 | 1.6 | 1.6 | 0.00 | 0.00 | 0.00 | 84 | 1003.7 |
| 20260507115656 | 9 | 52 | 0.0 | 3.2 | 0.00 | 0.00 | 0.00 | 83 | 1003.8 |
| 20260507115152 | 9 | 6 | 1.6 | 1.6 | 0.00 | 0.00 | 0.00 | 88 | 1003.9 |
| 20260507114648 | 8 | 298 | 4.8 | 4.8 | 0.00 | 0.00 | 0.00 | 84 | 1003.8 |
| 20260507114146 | 8 | 41 | 0.0 | 1.6 | 0.00 | 0.00 | 0.00 | 92 | 1003.6 |
| 20260507113643 | 8 | 33 | 0.0 | 3.2 | 0.00 | 0.00 | 0.00 | 89 | 1003.6 |
| 20260507113140 | 8 | 18 | 1.6 | 3.2 | 0.00 | 0.00 | 0.00 | 90 | 1003.7 |
| 20260507112638 | 7 | 28 | 0.0 | 3.2 | 0.00 | 0.00 | 0.00 | 97 | 1003.6 |
| 20260507112134 | 7 | 32 | 0.0 | 1.6 | 0.00 | 0.00 | 0.00 | 99 | 1003.4 |
| 20260507111631 | 7 | 32 | 0.0 | 1.6 | 0.00 | 0.00 | 0.00 | 99 | 1003.7 |
| 20260507111128 | 6 | 33 | 0.0 | 1.6 | 0.00 | 0.00 | 0.00 | 99 | 1003.8 |
| 20260507110624 | 6 | 32 | 0.0 | 1.6 | 0.00 | 0.00 | 0.00 | 99 | 1003.7 |
| 20260507110121 | 6 | 32 | 0.0 | 1.6 | 0.00 | 0.00 | 0.00 | 99 | 1003.6 |
| 20260507105618 | 5 | 32 | 0.0 | 1.6 | 0.00 | 0.00 | 0.00 | 99 | 1003.7 |
| 20260507105114 | 5 | 32 | 0.0 | 1.6 | 0.00 | 0.00 | 0.00 | 99 | 1003.5 |
| 20260507104612 | 5 | 32 | 1.6 | 1.6 | 0.00 | 0.00 | 0.00 | 99 | 1003.6 |
| 20260507104108 | 5 | 32 | 1.6 | 1.6 | 0.00 | 0.00 | 0.00 | 99 | 1003.8 |
| 20260507103604 | 5 | 32 | 0.0 | 0.0 | 0.00 | 0.00 | 0.00 | 99 | 1003.9 |
| 20260507103101 | 5 | 32 | 0.0 | 0.0 | 0.00 | 0.00 | 0.00 | 99 | 1003.8 |
| 20260507102557 | 5 | 32 | 0.0 | 1.6 | 0.00 | 0.00 | 0.00 | 99 | 1003.7 |
| 20260507102053 | 5 | 32 | 0.0 | 1.6 | 0.00 | 0.00 | 0.00 | 99 | 1003.7 |
| 20260507101548 | 5 | 32 | 1.6 | 1.6 | 0.00 | 0.00 | 0.00 | 99 | 1003.7 |
| 20260507101045 | 5 | 32 | 0.0 | 0.0 | 0.00 | 0.00 | 0.00 | 99 | 1003.7 |
| 20260507100543 | 5 | 32 | 1.6 | 1.6 | 0.00 | 0.00 | 0.00 | 99 | 1003.6 |
| 20260507100041 | 5 | 32 | 0.0 | 1.6 | 0.00 | 0.00 | 0.00 | 99 | 1003.7 |
| 20260507095538 | 5 | 32 | 0.0 | 0.0 | 0.00 | 0.00 | 0.00 | 99 | 1003.7 |
| 20260507095035 | 5 | 32 | 0.0 | 1.6 | 0.00 | 0.00 | 0.00 | 99 | 1003.7 |
| 20260507094531 | 5 | 32 | 0.0 | 0.0 | 0.00 | 0.00 | 0.00 | 99 | 1003.6 |
| 20260507094028 | 5 | 32 | 0.0 | 1.6 | 0.00 | 0.00 | 0.00 | 99 | 1003.6 |
| 20260507093526 | 6 | 32 | 0.0 | 1.6 | 0.00 | 0.00 | 0.00 | 99 | 1003.5 |
| 20260507093024 | 6 | 32 | 0.0 | 0.0 | 0.00 | 0.00 | 0.00 | 99 | 1003.5 |
| 20260507092520 | 6 | 32 | 0.0 | 0.0 | 0.00 | 0.00 | 0.00 | 99 | 1003.4 |
| 20260507092017 | 6 | 32 | 0.0 | 0.0 | 0.00 | 0.00 | 0.00 | 99 | 1003.4 |
| 20260507091514 | 6 | 32 | 0.0 | 0.0 | 0.00 | 0.00 | 0.00 | 99 | 1003.3 |
| 20260507091010 | 6 | 32 | 0.0 | 1.6 | 0.00 | 0.00 | 0.00 | 99 | 1003.5 |
| 20260507090506 | 6 | 32 | 1.6 | 1.6 | 0.00 | 0.00 | 0.00 | 99 | 1003.3 |
| 20260507090003 | 6 | 33 | 0.0 | 0.0 | 0.00 | 0.00 | 0.00 | 99 | 1003.2 |
| 20260507085500 | 7 | 33 | 0.0 | 1.6 | 0.00 | 0.00 | 0.00 | 99 | 1003.1 |
| 20260507084956 | 7 | 33 | 0.0 | 1.6 | 0.00 | 0.00 | 0.00 | 99 | 1003.5 |
| 20260507084453 | 7 | 32 | 0.0 | 0.0 | 0.00 | 0.00 | 0.00 | 99 | 1003.5 |
| 20260507083950 | 7 | 33 | 0.0 | 0.0 | 0.00 | 0.00 | 0.00 | 99 | 1003.6 |
| 20260507083446 | 7 | 33 | 0.0 | 0.0 | 0.00 | 0.00 | 0.00 | 99 | 1003.5 |
| 20260507082943 | 7 | 33 | 0.0 | 0.0 | 0.00 | 0.00 | 0.00 | 99 | 1003.6 |
| 20260507082439 | 7 | 32 | 0.0 | 1.6 | 0.00 | 0.00 | 0.00 | 99 | 1003.5 |
| 20260507081936 | 7 | 33 | 0.0 | 0.0 | 0.00 | 0.00 | 0.00 | 99 | 1003.3 |
| 20260507081432 | 7 | 33 | 0.0 | 0.0 | 0.00 | 0.00 | 0.00 | 99 | 1003.4 |
| 20260507080929 | 7 | 33 | 0.0 | 1.6 | 0.00 | 0.00 | 0.00 | 99 | 1003.2 |
| 20260507080425 | 7 | 33 | 0.0 | 0.0 | 0.00 | 0.00 | 0.00 | 99 | 1003.2 |
| 20260507075920 | 7 | 33 | 0.0 | 0.0 | 0.00 | 0.00 | 0.00 | 99 | 1003.0 |
| 20260507075417 | 7 | 33 | 0.0 | 0.0 | 0.00 | 0.00 | 0.00 | 99 | 1002.8 |
| 20260507074914 | 7 | 33 | 0.0 | 0.0 | 0.00 | 0.00 | 0.00 | 99 | 1002.6 |
| 20260507074410 | 7 | 33 | 0.0 | 0.0 | 0.00 | 0.00 | 0.00 | 99 | 1002.8 |
| 20260507073908 | 7 | 33 | 0.0 | 0.0 | 0.00 | 0.00 | 0.00 | 99 | 1002.8 |
| 20260507073404 | 7 | 33 | 0.0 | 1.6 | 0.00 | 0.00 | 0.00 | 99 | 1002.9 |
| 20260507072902 | 7 | 35 | 1.6 | 1.6 | 0.00 | 0.00 | 0.00 | 99 | 1002.8 |
| 20260507072359 | 7 | 38 | 1.6 | 3.2 | 0.00 | 0.00 | 0.00 | 99 | 1002.9 |
| 20260507071856 | 7 | 30 | 0.0 | 1.6 | 0.00 | 0.00 | 0.00 | 99 | 1002.9 |
| 20260507071353 | 7 | 23 | 1.6 | 3.2 | 0.00 | 0.00 | 0.00 | 99 | 1002.9 |
| 20260507070849 | 7 | 26 | 0.0 | 3.2 | 0.00 | 0.00 | 0.00 | 99 | 1002.8 |
| 20260507070347 | 7 | 25 | 0.0 | 4.8 | 0.00 | 0.00 | 0.00 | 99 | 1002.8 |
| 20260507065844 | 7 | 32 | 0.0 | 4.8 | 0.00 | 0.00 | 0.00 | 99 | 1002.8 |
| 20260507065340 | 7 | 24 | 1.6 | 3.2 | 0.00 | 0.00 | 0.00 | 99 | 1003.0 |
| 20260507064837 | 7 | 17 | 3.2 | 3.2 | 0.00 | 0.00 | 0.00 | 99 | 1002.7 |
| 20260507064336 | 7 | 28 | 0.0 | 1.6 | 0.00 | 0.00 | 0.00 | 99 | 1002.7 |
| 20260507063833 | 7 | 29 | 1.6 | 3.2 | 0.00 | 0.00 | 0.00 | 99 | 1002.4 |
| 20260507063330 | 7 | 50 | 1.6 | 3.2 | 0.00 | 0.00 | 0.00 | 99 | 1002.4 |
| 20260507062827 | 7 | 37 | 1.6 | 1.6 | 0.00 | 0.00 | 0.00 | 99 | 1002.3 |
| 20260507062324 | 7 | 30 | 1.6 | 3.2 | 0.00 | 0.00 | 0.00 | 99 | 1002.4 |
| 20260507061822 | 7 | 50 | 1.6 | 1.6 | 0.00 | 0.00 | 0.00 | 99 | 1002.1 |
| 20260507061320 | 8 | 41 | 0.0 | 1.6 | 0.00 | 0.00 | 0.00 | 99 | 1002.4 |
| 20260507060818 | 8 | 28 | 0.0 | 0.0 | 0.00 | 0.00 | 0.00 | 99 | 1002.0 |
| 20260507060314 | 8 | 28 | 0.0 | 0.0 | 0.00 | 0.00 | 0.00 | 99 | 1002.1 |
| 20260507055811 | 8 | 28 | 0.0 | 0.0 | 0.00 | 0.00 | 0.00 | 99 | 1001.9 |
| 20260507055306 | 8 | 28 | 0.0 | 0.0 | 0.00 | 0.00 | 0.00 | 99 | 1002.0 |
| 20260507054803 | 8 | 28 | 0.0 | 0.0 | 0.00 | 0.00 | 0.00 | 99 | 1002.1 |
| 20260507054259 | 8 | 28 | 0.0 | 0.0 | 0.00 | 0.00 | 0.00 | 99 | 1001.9 |
| 20260507053756 | 8 | 28 | 0.0 | 0.0 | 0.00 | 0.00 | 0.00 | 99 | 1001.8 |
| 20260507053254 | 8 | 28 | 0.0 | 0.0 | 0.00 | 0.00 | 0.00 | 99 | 1002.1 |
| 20260507052753 | 8 | 32 | 0.0 | 0.0 | 0.00 | 0.00 | 0.00 | 99 | 1002.0 |
| 20260507052249 | 9 | 32 | 0.0 | 0.0 | 0.00 | 0.00 | 0.00 | 99 | 1001.9 |
| 20260507051747 | 9 | 33 | 0.0 | 0.0 | 0.00 | 0.00 | 0.00 | 99 | 1001.6 |
| 20260507051244 | 9 | 33 | 0.0 | 0.0 | 0.00 | 0.00 | 0.00 | 99 | 1001.8 |
| 20260507050740 | 9 | 33 | 0.0 | 0.0 | 0.00 | 0.00 | 0.00 | 99 | 1001.7 |
| 20260507050237 | 9 | 33 | 0.0 | 0.0 | 0.00 | 0.00 | 0.00 | 99 | 1002.0 |
| 20260507045734 | 9 | 33 | 0.0 | 0.0 | 0.00 | 0.00 | 0.00 | 99 | 1002.0 |
| 20260507045230 | 9 | 34 | 0.0 | 1.6 | 0.00 | 0.00 | 0.00 | 99 | 1001.9 |
| 20260507044728 | 9 | 38 | 0.0 | 0.0 | 0.00 | 0.00 | 0.00 | 99 | 1001.8 |
| 20260507044224 | 9 | 50 | 1.6 | 1.6 | 0.00 | 0.00 | 0.00 | 99 | 1001.5 |
| 20260507043720 | 9 | 30 | 0.0 | 1.6 | 0.00 | 0.00 | 0.00 | 99 | 1001.6 |
| 20260507043217 | 9 | 29 | 0.0 | 1.6 | 0.00 | 0.00 | 0.00 | 99 | 1002.0 |
| 20260507042714 | 9 | 32 | 0.0 | 3.2 | 0.00 | 0.00 | 0.00 | 99 | 1002.0 |
| 20260507042208 | 10 | 33 | 1.6 | 1.6 | 0.00 | 0.00 | 0.00 | 99 | 1001.7 |
| 20260507041706 | 10 | 28 | 1.6 | 3.2 | 0.00 | 0.00 | 0.00 | 99 | 1002.1 |
| 20260507041202 | 10 | 357 | 3.2 | 3.2 | 0.00 | 0.00 | 0.00 | 99 | 1001.9 |
| 20260507040700 | 10 | 29 | 0.0 | 3.2 | 0.00 | 0.00 | 0.00 | 99 | 1002.0 |
| 20260507040155 | 10 | 33 | 0.0 | 0.0 | 0.00 | 0.00 | 0.00 | 99 | 1001.9 |
| 20260507035652 | 10 | 52 | 0.0 | 3.2 | 0.18 | 1.09 | 1.09 | 99 | 1002.1 |
| 20260507035148 | 10 | 49 | 1.6 | 1.6 | 0.18 | 1.09 | 1.09 | 99 | 1002.0 |
| 20260507034645 | 10 | 39 | 1.6 | 1.6 | 0.00 | 1.07 | 1.07 | 99 | 1001.9 |
| 20260507034142 | 10 | 51 | 1.6 | 3.2 | 0.00 | 1.07 | 1.07 | 99 | 1001.8 |
| 20260507033641 | 10 | 42 | 1.6 | 1.6 | 0.00 | 1.07 | 1.07 | 99 | 1001.7 |
| 20260507033137 | 10 | 44 | 1.6 | 1.6 | 0.00 | 1.07 | 1.07 | 99 | 1002.0 |
| 20260507032635 | 10 | 46 | 0.0 | 0.0 | 0.00 | 1.07 | 1.07 | 99 | 1001.9 |
| 20260507032131 | 11 | 39 | 1.6 | 1.6 | 0.00 | 1.07 | 1.07 | 99 | 1001.5 |
| 20260507031628 | 11 | 26 | 0.0 | 1.6 | 0.13 | 1.07 | 1.07 | 99 | 1001.5 |
| 20260507031124 | 11 | 10 | 1.6 | 3.2 | 0.00 | 1.04 | 1.04 | 99 | 1001.5 |
| 20260507030621 | 11 | 27 | 0.0 | 3.2 | 0.00 | 1.04 | 1.04 | 99 | 1001.4 |
| 20260507030119 | 11 | 29 | 1.6 | 3.2 | 0.00 | 1.04 | 1.04 | 99 | 1001.2 |
| 20260507025616 | 11 | 47 | 1.6 | 3.2 | 0.00 | 1.04 | 1.04 | 99 | 1001.1 |
| 20260507025113 | 11 | 25 | 0.0 | 1.6 | 0.00 | 1.04 | 1.04 | 99 | 1001.1 |
| 20260507024611 | 12 | 33 | 1.6 | 3.2 | 0.00 | 1.04 | 1.04 | 99 | 1001.2 |
| 20260507024108 | 12 | 54 | 3.2 | 3.2 | 0.00 | 1.04 | 1.04 | 99 | 1001.1 |
| 20260507023603 | 12 | 13 | 1.6 | 4.8 | 0.00 | 1.04 | 1.04 | 99 | 1001.2 |
| 20260507023101 | 12 | 40 | 0.0 | 1.6 | 0.00 | 1.04 | 1.04 | 99 | 1001.0 |
| 20260507022558 | 12 | 46 | 0.0 | 1.6 | 0.00 | 1.04 | 1.04 | 99 | 1001.0 |
| 20260507022053 | 12 | 35 | 0.0 | 0.0 | 0.00 | 1.04 | 1.04 | 99 | 1000.9 |
| 20260507021549 | 12 | 35 | 0.0 | 1.6 | 0.18 | 1.04 | 1.04 | 99 | 1000.9 |
| 20260507021045 | 13 | 41 | 1.6 | 1.6 | 0.18 | 1.04 | 1.04 | 99 | 1000.8 |
| 20260507020544 | 13 | 35 | 0.0 | 0.0 | 0.00 | 1.02 | 1.02 | 99 | 1000.7 |
| 20260507020040 | 13 | 35 | 0.0 | 1.6 | 0.00 | 1.02 | 1.02 | 99 | 1000.6 |
| 20260507015538 | 13 | 35 | 0.0 | 0.0 | 0.00 | 1.02 | 1.02 | 99 | 1000.8 |
| 20260507015035 | 13 | 36 | 0.0 | 1.6 | 0.00 | 1.02 | 1.02 | 99 | 1000.7 |
| 20260507014532 | 13 | 35 | 0.0 | 1.6 | 0.00 | 1.02 | 1.02 | 99 | 1000.9 |
| 20260507014027 | 13 | 35 | 0.0 | 0.0 | 0.00 | 1.02 | 1.02 | 99 | 1000.8 |
| 20260507013524 | 13 | 20 | 1.6 | 3.2 | 0.00 | 1.02 | 1.02 | 99 | 1001.0 |
| 20260507013022 | 14 | 12 | 1.6 | 3.2 | 0.00 | 1.02 | 1.02 | 99 | 1000.6 |
| 20260507012519 | 14 | 35 | 1.6 | 1.6 | 0.13 | 1.02 | 1.02 | 99 | 1000.7 |
| 20260507012015 | 14 | 33 | 0.0 | 0.0 | 0.13 | 1.02 | 1.02 | 99 | 1000.8 |
| 20260507011513 | 14 | 33 | 0.0 | 1.6 | 0.00 | 0.99 | 0.99 | 99 | 1000.8 |
| 20260507011008 | 14 | 34 | 0.0 | 0.0 | 0.00 | 0.99 | 0.99 | 99 | 1000.6 |
| 20260507010503 | 14 | 34 | 0.0 | 1.6 | 0.00 | 0.99 | 0.99 | 99 | 1000.4 |
| 20260507010000 | 14 | 34 | 0.0 | 0.0 | 0.00 | 0.99 | 0.99 | 99 | 1000.7 |
| 20260507005457 | 14 | 29 | 0.0 | 1.6 | 0.00 | 0.99 | 0.99 | 99 | 1000.3 |
| 20260507004953 | 15 | 42 | 0.0 | 1.6 | 0.00 | 0.99 | 0.99 | 99 | 1000.6 |
| 20260507004450 | 15 | 42 | 0.0 | 1.6 | 0.00 | 0.99 | 0.99 | 99 | 1000.6 |
| 20260507003948 | 15 | 42 | 1.6 | 1.6 | 0.00 | 0.99 | 0.99 | 99 | 1000.2 |
| 20260507003443 | 15 | 42 | 0.0 | 1.6 | 0.00 | 0.99 | 0.99 | 99 | 1000.4 |
| 20260507002938 | 15 | 31 | 0.0 | 1.6 | 0.00 | 0.99 | 0.99 | 99 | 1000.4 |
| 20260507002435 | 15 | 31 | 0.0 | 0.0 | 0.00 | 0.99 | 0.99 | 99 | 1000.3 |
| 20260507001932 | 15 | 31 | 0.0 | 0.0 | 0.00 | 0.99 | 0.99 | 99 | 1000.4 |
| 20260507001428 | 15 | 26 | 1.6 | 1.6 | 0.00 | 0.99 | 0.99 | 99 | 1000.3 |
| 20260507000926 | 15 | 35 | 0.0 | 1.6 | 0.00 | 0.99 | 0.99 | 99 | 1000.3 |
| 20260507000421 | 15 | 345 | 1.6 | 3.2 | 0.00 | 0.99 | 0.99 | 99 | 1000.3 |
| 20260506235917 | 15 | 24 | 0.0 | 1.6 | 0.00 | 0.99 | 0.99 | 99 | 1000.0 |
| 20260506235415 | 15 | 12 | 4.8 | 8.0 | 0.00 | 0.99 | 0.99 | 99 | 1000.0 |
| 20260506234910 | 15 | 0 | 3.2 | 3.2 | 0.00 | 0.99 | 0.99 | 99 | 1000.1 |
| 20260506234408 | 15 | 14 | 3.2 | 3.2 | 0.00 | 0.99 | 0.99 | 99 | 999.9 |
| 20260506233906 | 15 | 29 | 1.6 | 3.2 | 0.00 | 0.99 | 0.99 | 99 | 999.8 |
| 20260506233401 | 15 | 236 | 4.8 | 8.0 | 0.00 | 0.99 | 0.99 | 99 | 999.7 |
| 20260506232858 | 15 | 342 | 3.2 | 9.7 | 0.00 | 0.99 | 0.99 | 99 | 999.6 |
| 20260506232354 | 15 | 9 | 3.2 | 9.7 | 0.00 | 0.99 | 0.99 | 99 | 999.6 |
| 20260506231850 | 15 | 14 | 1.6 | 4.8 | 0.00 | 0.99 | 0.99 | 99 | 999.8 |
| 20260506231348 | 15 | 54 | 1.6 | 3.2 | 0.00 | 0.99 | 0.99 | 99 | 999.8 |
| 20260506230846 | 15 | 209 | 3.2 | 8.0 | 0.00 | 0.99 | 0.99 | 99 | 999.6 |
| 20260506230342 | 15 | 16 | 1.6 | 4.8 | 0.00 | 0.99 | 0.99 | 99 | 999.9 |
| 20260506225838 | 15 | 34 | 1.6 | 1.6 | 0.00 | 0.99 | 0.99 | 99 | 999.6 |
| 20260506225336 | 15 | 60 | 1.6 | 3.2 | 0.00 | 0.99 | 0.99 | 99 | 999.9 |